createdAt,value
2022-11-07T00:00:02.512Z,100072.94
2022-11-07T00:05:13.216Z,100078.19
2022-11-07T00:10:14.019Z,100071.16
2022-11-07T00:15:14.851Z,100084.09
2022-11-07T00:20:17.139Z,100077.25
2022-11-07T00:25:18.155Z,100071.03
2022-11-07T00:30:19.039Z,100077.00
2022-11-07T00:35:21.242Z,100085.72
2022-11-07T00:40:22.045Z,100099.50
2022-11-07T00:45:22.883Z,100087.50
2022-11-07T00:50:25.011Z,100098.84
2022-11-07T00:55:25.792Z,100096.38
2022-11-07T01:00:27.249Z,100101.59
2022-11-07T01:05:29.344Z,100094.72
2022-11-07T01:10:30.180Z,100104.25
2022-11-07T01:15:31.001Z,100108.56
2022-11-07T01:20:33.145Z,100086.06
2022-11-07T01:25:33.957Z,100072.19
2022-11-07T01:30:35.135Z,100072.22
2022-11-07T01:35:38.188Z,100066.22
2022-11-07T01:41:04.103Z,100067.06
2022-11-07T01:46:05.020Z,100056.81
2022-11-07T01:51:08.344Z,100060.22
2022-11-07T01:56:14.102Z,100070.59
2022-11-07T02:01:16.322Z,100067.16
2022-11-07T02:06:25.194Z,100077.53
2022-11-07T02:11:26.366Z,100079.34
2022-11-07T02:16:27.885Z,100078.63
2022-11-07T02:21:42.240Z,100070.03
2022-11-07T02:26:45.452Z,100059.81
2022-11-07T02:31:46.271Z,100055.47
2022-11-07T02:36:47.210Z,100066.72
2022-11-07T02:41:49.804Z,100072.03
2022-11-07T02:46:51.021Z,100068.59
2022-11-07T02:51:51.842Z,100064.28
2022-11-07T02:56:54.055Z,100058.28
2022-11-07T03:01:55.115Z,100065.25
2022-11-07T03:06:55.972Z,100062.69
2022-11-07T03:11:58.161Z,100070.50
2022-11-07T03:16:58.900Z,100078.28
2022-11-07T03:21:59.768Z,100084.34
2022-11-07T03:27:01.901Z,100088.75
2022-11-07T03:32:02.695Z,100100.84
2022-11-07T03:37:03.446Z,100100.88
2022-11-07T03:42:05.841Z,100119.88
2022-11-07T03:47:06.774Z,100131.91
2022-11-07T03:52:07.537Z,100143.97
2022-11-07T03:57:10.000Z,100143.94
2022-11-07T04:02:10.965Z,100158.59
2022-11-07T04:07:11.802Z,100162.81
2022-11-07T04:12:31.401Z,100155.03
2022-11-07T04:17:32.629Z,100166.19
2022-11-07T04:22:34.140Z,100173.97
2022-11-07T04:27:46.907Z,100174.78
2022-11-07T04:32:48.671Z,100179.88
2022-11-07T04:37:49.863Z,100189.31
2022-11-07T04:42:52.120Z,100195.31
2022-11-07T04:47:53.097Z,100194.47
2022-11-07T04:52:53.931Z,100190.97
2022-11-07T04:57:56.062Z,100201.28
2022-11-07T05:02:56.941Z,100209.00
2022-11-07T05:07:57.785Z,100207.34
2022-11-07T05:12:59.964Z,100209.63
2022-11-07T05:18:00.749Z,100205.94
2022-11-07T05:23:15.543Z,100210.94
2022-11-07T05:28:28.008Z,100215.47
2022-11-07T05:33:31.541Z,100226.00
2022-11-07T05:38:32.362Z,100222.59
2022-11-07T05:43:34.592Z,100225.38
2022-11-07T05:48:35.658Z,100234.00
2022-11-07T05:53:36.639Z,100234.03
2022-11-07T05:58:39.231Z,100245.41
2022-11-07T06:03:40.003Z,100254.06
2022-11-07T06:08:40.864Z,100249.78
2022-11-07T06:13:43.015Z,100250.78
2022-11-07T06:18:43.875Z,100260.31
2022-11-07T06:23:44.823Z,100254.25
2022-11-07T06:28:46.946Z,100258.53
2022-11-07T06:33:50.739Z,100261.09
2022-11-07T06:38:53.439Z,100278.41
2022-11-07T06:43:55.578Z,100268.91
2022-11-07T06:48:57.049Z,100268.91
2022-11-07T06:53:57.957Z,100270.53
2022-11-07T06:59:00.203Z,100276.56
2022-11-07T07:04:01.443Z,100280.88
2022-11-07T07:09:02.658Z,100305.91
2022-11-07T07:14:10.228Z,100298.03
2022-11-07T07:19:12.890Z,100300.56
2022-11-07T07:24:13.908Z,100303.84
2022-11-07T07:29:16.039Z,100302.13
2022-11-07T07:34:16.815Z,100309.00
2022-11-07T07:39:17.587Z,100313.28
2022-11-07T07:44:19.920Z,100320.09
2022-11-07T07:49:20.712Z,100307.00
2022-11-07T07:54:21.589Z,100298.31
2022-11-07T07:59:23.759Z,100310.34
2022-11-07T08:04:24.704Z,100314.56
2022-11-07T08:09:25.468Z,100310.09
2022-11-07T08:14:27.729Z,100316.84
2022-11-07T08:19:28.565Z,100314.03
2022-11-07T08:24:29.333Z,100319.09
2022-11-07T08:29:31.769Z,100313.84
2022-11-07T08:34:32.554Z,100320.69
2022-11-07T08:39:33.484Z,100313.69
2022-11-07T08:44:36.763Z,100302.25
2022-11-07T08:49:37.574Z,100322.00
2022-11-07T08:54:38.328Z,100308.59
2022-11-07T08:59:40.533Z,100314.34
2022-11-07T09:04:41.501Z,100316.63
2022-11-07T09:09:42.374Z,100298.78
2022-11-07T09:14:44.550Z,100311.34
2022-11-07T09:19:45.325Z,100302.75
2022-11-07T09:24:46.207Z,100301.53
2022-11-07T09:29:48.441Z,100306.09
2022-11-07T09:34:55.927Z,100298.69
2022-11-07T09:39:57.928Z,100294.31
2022-11-07T09:45:01.198Z,100285.09
2022-11-07T09:50:07.956Z,100283.41
2022-11-07T09:55:16.607Z,100283.72
2022-11-07T10:00:20.899Z,100287.28
2022-11-07T10:05:31.793Z,100277.03
2022-11-07T10:10:44.599Z,100279.66
2022-11-07T10:16:03.007Z,100274.19
2022-11-07T10:21:36.606Z,100266.22
2022-11-07T10:26:33.300Z,100265.97
2022-11-07T10:31:39.965Z,100278.97
2022-11-07T10:36:40.847Z,100268.38
2022-11-07T10:41:44.778Z,100267.25
2022-11-07T10:46:51.540Z,100279.13
2022-11-07T10:51:56.978Z,100283.56
2022-11-07T10:57:03.421Z,100291.47
2022-11-07T11:02:20.807Z,100275.81
2022-11-07T11:07:28.418Z,100288.44
2022-11-07T11:12:34.453Z,100280.88
2022-11-07T11:17:37.093Z,100270.19
2022-11-07T11:22:43.603Z,100271.78
2022-11-07T11:27:47.851Z,100261.03
2022-11-07T11:32:53.548Z,100268.66
2022-11-07T11:38:01.865Z,100259.41
2022-11-07T11:43:12.964Z,100264.31
2022-11-07T11:48:25.451Z,100251.97
2022-11-07T11:53:26.379Z,100254.94
2022-11-07T11:58:40.285Z,100241.38
2022-11-07T12:04:08.122Z,100254.38
2022-11-07T12:09:33.071Z,100244.00
2022-11-07T12:14:57.049Z,100254.63
2022-11-07T12:20:11.262Z,100253.81
2022-11-07T12:25:22.488Z,100246.56
2022-11-07T12:30:27.441Z,100242.81
2022-11-07T12:35:38.223Z,100236.53
2022-11-07T12:40:51.189Z,100229.09
2022-11-07T12:45:58.229Z,100230.56
2022-11-07T12:51:06.109Z,100243.00
2022-11-07T12:56:12.404Z,100237.28
2022-11-07T13:01:14.798Z,100232.97
2022-11-07T13:06:24.557Z,100238.03
2022-11-07T13:11:32.800Z,100240.28
2022-11-07T13:16:36.320Z,100237.56
2022-11-07T13:21:43.415Z,100242.81
2022-11-07T13:26:47.438Z,100247.13
2022-11-07T13:32:06.544Z,100249.22
2022-11-07T13:37:17.346Z,100257.63
2022-11-07T13:42:19.869Z,100252.91
2022-11-07T13:47:26.794Z,100254.72
2022-11-07T13:52:39.565Z,100264.25
2022-11-07T13:57:44.704Z,100261.44
2022-11-07T14:02:52.419Z,100255.78
2022-11-07T14:07:59.327Z,100261.81
2022-11-07T14:13:07.326Z,100263.56
2022-11-07T14:18:08.474Z,100274.34
2022-11-07T14:23:14.317Z,100274.00
2022-11-07T14:28:17.616Z,100262.72
2022-11-07T14:33:21.015Z,100286.00
2022-11-07T14:38:26.088Z,100282.88
2022-11-07T14:43:27.856Z,100285.00
2022-11-07T14:48:30.086Z,100283.97
2022-11-07T14:53:38.050Z,100278.47
2022-11-07T14:58:39.267Z,100278.06
2022-11-07T15:03:52.674Z,100276.41
2022-11-07T15:09:00.618Z,100287.19
2022-11-07T15:14:04.065Z,100286.81
2022-11-07T15:19:07.166Z,100291.69
2022-11-07T15:24:32.517Z,100281.66
2022-11-07T15:29:36.381Z,100289.22
2022-11-07T15:34:58.756Z,100292.69
2022-11-07T15:39:59.535Z,100293.16
2022-11-07T15:45:00.401Z,100294.59
2022-11-07T15:50:04.646Z,100282.75
2022-11-07T15:55:10.387Z,100281.25
2022-11-07T16:00:16.821Z,100283.94
2022-11-07T16:05:18.370Z,100285.75
2022-11-07T16:10:23.964Z,100282.34
2022-11-07T16:15:26.423Z,100282.47
2022-11-07T16:20:27.274Z,100291.91
2022-11-07T16:25:31.569Z,100287.19
2022-11-07T16:30:34.369Z,100298.31
2022-11-07T16:35:35.190Z,100307.63
2022-11-07T16:40:39.932Z,100312.44
2022-11-07T16:45:46.382Z,100308.31
2022-11-07T16:50:47.798Z,100306.34
2022-11-07T16:55:53.696Z,100299.63
2022-11-07T17:00:56.465Z,100308.63
2022-11-07T17:05:59.974Z,100319.19
2022-11-07T17:11:02.080Z,100320.09
2022-11-07T17:16:03.063Z,100322.91
2022-11-07T17:21:04.119Z,100327.13
2022-11-07T17:26:07.009Z,100324.75
2022-11-07T17:31:07.890Z,100333.69
2022-11-07T17:36:23.927Z,100344.91
2022-11-07T17:41:28.302Z,100343.72
2022-11-07T17:46:32.211Z,100343.19
2022-11-07T17:51:33.205Z,100352.22
2022-11-07T17:56:35.517Z,100351.56
2022-11-07T18:01:38.571Z,100351.06
2022-11-07T18:06:41.597Z,100355.81
2022-11-07T18:11:44.129Z,100365.63
2022-11-07T18:16:44.980Z,100360.81
2022-11-07T18:21:45.871Z,100364.25
2022-11-07T18:26:50.938Z,100371.47
2022-11-07T18:31:51.883Z,100354.16
2022-11-07T18:36:52.795Z,100363.03
2022-11-07T18:41:55.133Z,100361.25
2022-11-07T18:46:56.049Z,100366.41
2022-11-07T18:51:56.859Z,100362.97
2022-11-07T18:56:59.271Z,100356.09
2022-11-07T19:02:00.281Z,100356.22
2022-11-07T19:07:01.231Z,100359.97
2022-11-07T19:12:03.670Z,100362.72
2022-11-07T19:17:04.878Z,100364.66
2022-11-07T19:22:06.560Z,100371.72
2022-11-07T19:27:09.106Z,100368.47
2022-11-07T19:32:10.110Z,100361.59
2022-11-07T19:37:11.476Z,100355.59
2022-11-07T19:42:13.721Z,100359.31
2022-11-07T19:47:14.613Z,100362.94
2022-11-07T19:52:15.461Z,100367.28
2022-11-07T19:57:17.989Z,100362.91
2022-11-07T20:02:32.283Z,100366.44
2022-11-07T20:07:34.312Z,100359.63
2022-11-07T20:12:36.989Z,100364.94
2022-11-07T20:17:38.165Z,100369.34
2022-11-07T20:22:42.603Z,100371.16
2022-11-07T20:27:48.225Z,100373.75
2022-11-07T20:32:49.092Z,100374.72
2022-11-07T20:37:50.023Z,100387.63
2022-11-07T20:42:52.292Z,100380.78
2022-11-07T20:47:53.184Z,100392.13
2022-11-07T20:52:57.497Z,100398.13
2022-11-07T20:58:03.625Z,100398.97
2022-11-07T21:03:04.890Z,100392.91
2022-11-07T21:08:06.374Z,100396.31
2022-11-07T21:13:08.557Z,100398.13
2022-11-07T21:18:11.608Z,100394.66
2022-11-07T21:23:13.171Z,100392.09
2022-11-07T21:28:17.965Z,100393.75
2022-11-07T21:33:19.125Z,100405.00
2022-11-07T21:38:20.409Z,100398.00
2022-11-07T21:43:22.626Z,100403.00
2022-11-07T21:48:23.468Z,100412.41
2022-11-07T21:53:24.333Z,100406.28
2022-11-07T21:58:26.695Z,100395.81
2022-11-07T22:03:51.073Z,100404.31
2022-11-07T22:08:49.565Z,100402.38
2022-11-07T22:13:51.792Z,100403.22
2022-11-07T22:18:52.881Z,100397.88
2022-11-07T22:23:53.733Z,100394.50
2022-11-07T22:28:56.320Z,100392.91
2022-11-07T22:33:59.506Z,100390.44
2022-11-07T22:39:00.379Z,100389.81
2022-11-07T22:44:02.733Z,100390.81
2022-11-07T22:49:03.942Z,100392.53
2022-11-07T22:54:06.883Z,100382.25
2022-11-07T22:59:10.337Z,100388.22
2022-11-07T23:04:15.137Z,100384.78
2022-11-07T23:09:17.052Z,100393.47
2022-11-07T23:14:21.180Z,100392.50
2022-11-07T23:19:24.193Z,100388.97
2022-11-07T23:24:25.266Z,100388.03
2022-11-07T23:29:27.433Z,100389.69
2022-11-07T23:34:29.164Z,100382.56
2022-11-07T23:39:30.339Z,100377.28
2022-11-07T23:44:32.572Z,100378.19
2022-11-07T23:49:51.328Z,100373.06
2022-11-07T23:55:09.646Z,100373.97
